ルアンダ の空港の天気 - METARとTAF

ルアンダ国際空港 ( FNLU / LAD ) - アンゴラ ルアンダ
飛行場実況気象(Metar)
観測時間01/19 12:00 WAT (01/19 11:00 UTC)
風向・風速西 4m/s
視程10km以上
天気現象
全天の4割程度の雲 雲底高度 610m
全天の8割程度の雲 雲底高度 2740m
気温31℃
湿度55%
気圧1013hPa
METARFNLU 191100Z 28007KT 9999 SCT020 BKN090 31/21 Q1013 NOSIG
過去の天気等 Google飛行場航空写真 Wunderground天気予報

過去48時間のMETAR

飛行場予報(TAF)
発表時間: 1/19 06:00 WAT (1/19 05:00 UTC)
予報対象時間: 19日7時 WAT ~ 20日13時 WAT
風向・風速南 3m/s
視程8000m
少しの雲 雲底高度 610m
少しの積乱雲 雲底高度 700m
全天の4割程度の雲 雲底高度 760m
19日11時 WAT ~ 19日13時 WAT に徐々に
風向・風速西 5m/s
20日3時 WAT ~ 20日7時 WAT に一時的に
風向・風速南南東 3m/s
視程9000m
全天の4割程度の雲 雲底高度 610m
全天の8割程度の雲 雲底高度 1220m
TAF FNLU 190500Z 1906/2012 17006KT 8000 FEW020 FEW023CB SCT025
BECMG 1910/1912 27010KT
TEMPO 2002/2006 16006KT 9000 SCT020 BKN040